Canvas, WV (26662)

7:56 PM EDT on August 24, 2016 (GMT -0400)
Summersville | | Change Station

Elev 1932 ft 38.30 °N, 80.84 °W | Updated 6 seconds ago

Clear
Clear
76.5 °F
Feels Like 78 °F
N
0.0
Wind Variable Wind from NE

Today
High -- | Low -- °F
--% Chance of Precip.
Yesterday
High -- | Low -- °F
Precip. -- in
Pressure 30.26 in
Visibility 10.0 miles
Clouds Clear
Heat Index 78 °F
Dew Point 68 °F
Humidity 76%
Rainfall 0.04 in
Snow Depth Not available.
6:45 AM 8:03 PM
Waning Gibbous, 52% visible
METAR KLWB 242335Z AUTO 00000KT 10SM CLR 24/19 A3026 RMK AO2 T02360185
Pressure 30.26 in
Visibility 10.0 miles
Clouds Clear
Heat Index 78 °F
Dew Point 68 °F
Humidity 76%
Rainfall 0.04 in
Snow Depth Not available.
6:45 AM 8:03 PM
Waning Gibbous, 52% visible
METAR KLWB 242335Z AUTO 00000KT 10SM CLR 24/19 A3026 RMK AO2 T02360185

10-Day Weather Forecast

Almanac

Astronomy

Aug. 24, 2016 Rise Set
Actual Time
Civil Twilight
Nautical Twilight
Astronomical Twilight
Moon
Length of Visible Light
Length of Day
Tomorrow will be .
, % of the Moon is Illuminated

Today's Extremes

State Highs State Lows

Community

WunderPhotos

Upload Photos

1,934,739 photos uploaded!

WunderBlog® & News

Nearby

Air Quality

  Air Quality AQ Index Pollutant
Not available.

Snow Depth

Station Depth Elevation

Earthquake Activity

City Distance Mag. Time & Date
Minimum magnitude displayed is 2.5.

Coastal Water Temperatures

Place Temperature

Stations

Nearby Weather Stations

Station Location Temp. Windchill Dew Point Humidity Wind Precip. Elev Updated Type
                   

Watches & Warnings

There are currently no watches in effect.